createdAt,value
2022-10-21T00:01:51.396Z,10.65
2022-10-21T00:06:53.094Z,10.90
2022-10-21T00:11:54.777Z,10.13
2022-10-21T00:16:56.451Z,10.38
2022-10-21T00:21:58.116Z,9.77
2022-10-21T00:26:59.788Z,10.90
2022-10-21T00:32:01.502Z,10.05
2022-10-21T00:37:03.291Z,10.00
2022-10-21T00:42:17.791Z,10.93
2022-10-21T00:47:22.681Z,10.20
2022-10-21T00:52:24.958Z,10.10
2022-10-21T00:57:28.363Z,9.18
2022-10-21T01:02:30.428Z,10.43
2022-10-21T01:07:35.344Z,10.65
2022-10-21T01:12:43.232Z,8.88
2022-10-21T01:18:15.733Z,8.65
2022-10-21T01:23:54.461Z,9.18
2022-10-21T01:29:15.241Z,9.15
2022-10-21T01:34:41.674Z,8.95
2022-10-21T01:39:50.966Z,9.07
2022-10-21T01:45:00.784Z,8.75
2022-10-21T01:50:08.375Z,9.43
2022-10-21T01:55:15.685Z,9.90
2022-10-21T02:00:17.645Z,9.05
2022-10-21T02:05:30.437Z,9.27
2022-10-21T02:10:37.045Z,8.57
2022-10-21T02:15:40.964Z,8.75
2022-10-21T02:20:50.640Z,8.73
2022-10-21T02:25:52.703Z,9.85
2022-10-21T02:30:59.783Z,9.10
2022-10-21T02:36:13.134Z,8.73
2022-10-21T02:41:22.026Z,10.40
2022-10-21T02:46:25.071Z,9.73
2022-10-21T02:51:26.748Z,10.50
2022-10-21T03:01:35.048Z,8.25
2022-10-21T03:06:36.712Z,9.38
2022-10-21T03:11:38.367Z,9.55
2022-10-21T03:16:40.066Z,8.38
2022-10-21T03:21:41.770Z,9.20
2022-10-21T03:26:43.437Z,11.13
2022-10-21T03:31:45.105Z,8.15
2022-10-21T03:36:46.824Z,9.70
2022-10-21T03:41:48.487Z,10.02
2022-10-21T03:46:50.144Z,10.40
2022-10-21T03:51:51.821Z,8.48
2022-10-21T03:56:53.496Z,9.98
2022-10-21T04:01:55.225Z,9.65
2022-10-21T04:06:56.938Z,9.60
2022-10-21T04:11:58.615Z,11.52
2022-10-21T04:17:06.750Z,11.13
2022-10-21T04:22:09.776Z,12.15
2022-10-21T04:27:11.446Z,11.55
2022-10-21T04:32:13.105Z,11.55
2022-10-21T04:37:14.781Z,12.30
2022-10-21T04:42:16.543Z,11.60
2022-10-21T04:47:18.295Z,13.40
2022-10-21T04:52:19.970Z,12.90
2022-10-21T04:57:21.642Z,13.40
2022-10-21T05:02:25.638Z,13.25
2022-10-21T05:07:27.790Z,13.82
2022-10-21T05:12:29.529Z,12.98
2022-10-21T05:17:31.225Z,13.20
2022-10-21T05:22:33.073Z,14.48
2022-10-21T05:27:34.739Z,14.82
2022-10-21T05:32:36.752Z,12.40
2022-10-21T05:37:38.841Z,13.25
2022-10-21T05:42:40.717Z,13.82
2022-10-21T05:47:43.111Z,14.23
2022-10-21T05:52:44.879Z,14.18
2022-10-21T05:57:46.850Z,12.85
2022-10-21T06:02:48.535Z,14.43
2022-10-21T06:07:50.229Z,15.75
2022-10-21T06:12:51.939Z,13.57
2022-10-21T06:17:53.662Z,14.75
2022-10-21T06:22:55.327Z,16.35
2022-10-21T06:27:57.021Z,13.90
2022-10-21T06:32:58.677Z,15.30
2022-10-21T06:38:00.321Z,13.77
2022-10-21T06:43:02.786Z,15.57
2022-10-21T06:48:04.681Z,14.55
2022-10-21T06:53:06.429Z,14.90
2022-10-21T06:58:08.105Z,15.98
2022-10-21T07:03:09.775Z,15.45
2022-10-21T07:08:12.753Z,14.98
2022-10-21T07:13:14.670Z,14.60
2022-10-21T07:18:16.332Z,14.88
2022-10-21T07:23:18.211Z,14.65
2022-10-21T07:28:19.895Z,11.45
2022-10-21T07:33:21.628Z,12.52
2022-10-21T07:38:23.370Z,12.20
2022-10-21T07:43:25.470Z,11.85
2022-10-21T07:48:28.566Z,11.27
2022-10-21T07:53:30.321Z,10.82
2022-10-21T07:58:32.168Z,10.60
2022-10-21T08:03:34.123Z,11.20
2022-10-21T08:08:36.620Z,11.25
2022-10-21T08:13:41.525Z,9.95
2022-10-21T08:18:43.245Z,10.82
2022-10-21T08:23:45.494Z,10.93
2022-10-21T08:28:47.271Z,11.35
2022-10-21T08:33:49.763Z,9.93
2022-10-21T08:38:52.342Z,9.30
2022-10-21T08:43:59.023Z,8.73
2022-10-21T08:49:10.626Z,8.82
2022-10-21T08:54:31.497Z,8.57
2022-10-21T08:59:33.381Z,8.93
2022-10-21T09:04:45.471Z,7.57
2022-10-21T09:10:00.692Z,9.00
2022-10-21T09:15:14.210Z,9.48
2022-10-21T09:20:40.397Z,9.07
2022-10-21T09:26:06.857Z,10.20
2022-10-21T09:31:21.677Z,10.27
2022-10-21T09:36:38.782Z,10.23
2022-10-21T09:41:48.116Z,9.77
2022-10-21T09:46:51.977Z,10.35
2022-10-21T09:51:54.276Z,10.75
2022-10-21T09:57:04.481Z,11.55
2022-10-21T10:02:08.384Z,10.90
2022-10-21T10:07:32.514Z,11.98
2022-10-21T10:12:34.167Z,10.73
2022-10-21T10:17:38.673Z,11.82
2022-10-21T10:23:08.377Z,11.63
2022-10-21T10:28:10.014Z,11.48
2022-10-21T10:33:23.192Z,12.23
2022-10-21T10:38:54.735Z,11.15
2022-10-21T10:43:57.775Z,12.68
2022-10-21T10:49:17.436Z,11.32
2022-10-21T10:54:29.580Z,10.68
2022-10-21T10:59:41.118Z,11.57
2022-10-21T11:05:06.988Z,11.10
2022-10-21T11:10:46.333Z,8.27
2022-10-21T11:16:24.724Z,9.20
2022-10-21T11:21:44.626Z,8.15
2022-10-21T11:26:52.285Z,8.95
2022-10-21T11:32:16.286Z,9.20
2022-10-21T11:37:23.681Z,8.25
2022-10-21T11:42:41.609Z,8.30
2022-10-21T11:47:54.931Z,8.45
2022-10-21T11:53:19.730Z,7.93
2022-10-21T11:58:46.329Z,8.25
2022-10-21T12:03:58.927Z,8.45
2022-10-21T12:09:06.318Z,9.68
2022-10-21T12:14:31.582Z,9.52
2022-10-21T12:19:36.015Z,9.52
2022-10-21T12:24:51.073Z,8.70
2022-10-21T12:30:24.821Z,8.63
2022-10-21T12:35:47.303Z,10.52
2022-10-21T12:40:51.005Z,9.73
2022-10-21T12:46:11.139Z,9.38
2022-10-21T12:51:39.310Z,10.48
2022-10-21T12:56:48.354Z,9.80
2022-10-21T13:02:05.054Z,10.18
2022-10-21T13:07:15.736Z,11.90
2022-10-21T13:12:23.308Z,13.35
2022-10-21T13:17:29.601Z,12.90
2022-10-21T13:22:34.542Z,15.40
2022-10-21T13:27:38.726Z,25.30
2022-10-21T13:32:41.822Z,23.48
2022-10-21T13:37:54.143Z,23.65
2022-10-21T13:43:00.011Z,24.42
2022-10-21T13:48:13.721Z,26.08
2022-10-21T13:53:18.460Z,24.63
2022-10-21T13:58:24.025Z,26.48
2022-10-21T14:03:26.527Z,26.58
2022-10-21T14:08:28.412Z,26.95
2022-10-21T14:13:35.891Z,27.02
2022-10-21T14:18:41.595Z,24.98
2022-10-21T14:23:45.676Z,26.40
2022-10-21T14:28:50.056Z,23.40
2022-10-21T14:33:51.802Z,25.20
2022-10-21T14:39:03.206Z,26.40
2022-10-21T14:44:14.789Z,21.98
2022-10-21T14:49:23.839Z,13.93
2022-10-21T14:54:38.325Z,14.10
2022-10-21T14:59:42.993Z,13.85
2022-10-21T15:04:59.060Z,13.65
2022-10-21T15:10:03.835Z,12.13
2022-10-21T15:15:40.799Z,8.68
2022-10-21T15:20:50.435Z,7.95
2022-10-21T15:25:56.020Z,9.25
2022-10-21T15:30:59.630Z,9.93
2022-10-21T15:36:02.694Z,9.77
2022-10-21T15:41:04.849Z,10.25
2022-10-21T15:46:06.582Z,9.27
2022-10-21T15:51:08.335Z,9.85
2022-10-21T15:56:14.833Z,10.18
2022-10-21T16:01:17.485Z,10.98
2022-10-21T16:06:21.157Z,10.85
2022-10-21T16:11:34.650Z,11.48
2022-10-21T16:16:48.544Z,13.27
2022-10-21T16:21:50.228Z,12.82
2022-10-21T16:26:52.056Z,13.77
2022-10-21T16:31:53.890Z,14.02
2022-10-21T16:36:55.859Z,14.65
2022-10-21T16:41:57.537Z,14.82
2022-10-21T16:46:59.245Z,13.88
2022-10-21T16:52:02.239Z,13.18
2022-10-21T16:57:07.020Z,11.52
2022-10-21T17:02:26.795Z,13.02
2022-10-21T17:07:30.625Z,14.23
2022-10-21T17:12:33.575Z,13.45
2022-10-21T17:17:36.697Z,14.43
2022-10-21T17:22:38.506Z,13.10
2022-10-21T17:27:40.582Z,15.45
2022-10-21T17:37:50.242Z,10.73
2022-10-21T17:42:52.664Z,14.48
2022-10-21T17:47:54.410Z,12.63
2022-10-21T17:52:56.120Z,14.23
2022-10-21T17:57:57.792Z,15.88
2022-10-21T18:02:59.448Z,18.88
2022-10-21T18:08:01.109Z,19.13
2022-10-21T18:13:02.845Z,13.23
2022-10-21T18:18:04.508Z,12.45
2022-10-21T18:23:06.184Z,13.30
2022-10-21T18:28:08.466Z,14.52
2022-10-21T18:33:10.569Z,11.45
2022-10-21T18:38:12.603Z,10.80
2022-10-21T18:43:15.011Z,10.27
2022-10-21T18:48:16.695Z,9.85
2022-10-21T18:53:18.574Z,10.32
2022-10-21T18:58:20.240Z,8.98
2022-10-21T19:03:22.561Z,9.30
2022-10-21T19:08:24.326Z,9.73
2022-10-21T19:18:28.598Z,9.25
2022-10-21T19:23:32.488Z,7.95
2022-10-21T19:28:35.381Z,8.63
2022-10-21T19:33:37.614Z,8.55
2022-10-21T19:38:44.445Z,9.02
2022-10-21T19:43:47.503Z,8.13
2022-10-21T19:48:49.796Z,8.50
2022-10-21T19:53:52.135Z,7.65
2022-10-21T19:58:53.830Z,7.90
2022-10-21T20:03:56.161Z,7.90
2022-10-21T20:09:00.718Z,7.05
2022-10-21T20:14:03.013Z,7.28
2022-10-21T20:19:06.764Z,7.07
2022-10-21T20:24:09.835Z,7.43
2022-10-21T20:29:13.314Z,7.07
2022-10-21T20:34:15.402Z,6.28
2022-10-21T20:39:17.570Z,6.00
2022-10-21T20:44:19.440Z,5.82
2022-10-21T20:49:21.097Z,6.03
2022-10-21T20:54:22.866Z,5.47
2022-10-21T20:59:24.929Z,6.18
2022-10-21T21:04:26.911Z,6.75
2022-10-21T21:09:44.043Z,5.50
2022-10-21T21:14:50.212Z,6.45
2022-10-21T21:19:51.982Z,6.43
2022-10-21T21:24:53.641Z,6.10
2022-10-21T21:29:55.354Z,5.50
2022-10-21T21:34:57.066Z,5.70
2022-10-21T21:39:58.721Z,5.57
2022-10-21T21:45:00.390Z,5.05
2022-10-21T21:50:02.101Z,5.22
2022-10-21T21:55:03.959Z,5.22
2022-10-21T22:00:07.501Z,4.90
2022-10-21T22:05:09.295Z,4.68
2022-10-21T22:10:11.138Z,4.28
2022-10-21T22:15:19.830Z,4.30
2022-10-21T22:20:35.045Z,4.93
2022-10-21T22:25:36.706Z,3.88
2022-10-21T22:30:38.355Z,4.43
2022-10-21T22:35:40.022Z,4.35
2022-10-21T22:40:41.725Z,4.47
2022-10-21T22:45:47.344Z,4.32
2022-10-21T22:50:49.673Z,7.30
2022-10-21T22:55:51.331Z,10.32
2022-10-21T23:00:53.003Z,12.88
2022-10-21T23:05:54.674Z,13.90
2022-10-21T23:10:56.898Z,13.15
2022-10-21T23:15:58.559Z,13.20
2022-10-21T23:21:00.252Z,15.43
2022-10-21T23:26:03.069Z,17.63
2022-10-21T23:31:04.936Z,14.90
2022-10-21T23:36:07.033Z,15.75
2022-10-21T23:41:08.719Z,16.30
2022-10-21T23:46:10.548Z,16.38
2022-10-21T23:51:12.275Z,13.85
2022-10-21T23:56:14.120Z,15.57
